Time;durP1;ratioP1;P1;durP2;ratioP2;P2;SDS_P1;SDS_P2;PMS_P1;PMS_P2;Temp;Humidity;BMP_temperature;BMP_pressure;BME280_temperature;BME280_humidity;BME280_pressure;Samples;Min_cycle;Max_cycle;Signal;HPM_P1;HPM_P2
2022/07/16 00:02:29;;;;;;;2.63;0.60;;;20.30;1.00;;;;;;5117922;28;21075;-73
2022/07/16 00:04:58;;;;;;;1.23;0.73;;;20.30;1.00;;;;;;5117162;28;20456;-73
2022/07/16 00:07:25;;;;;;;0.80;0.63;;;20.30;1.00;;;;;;5116997;28;20809;-73
2022/07/16 00:09:52;;;;;;;0.80;0.50;;;20.20;1.00;;;;;;5116917;28;20453;-73
2022/07/16 00:12:19;;;;;;;0.93;0.70;;;20.00;1.00;;;;;;5116967;28;20447;-73
2022/07/16 00:14:46;;;;;;;1.40;0.77;;;20.00;1.00;;;;;;5116930;28;20897;-73
2022/07/16 00:17:13;;;;;;;0.90;0.60;;;19.90;1.00;;;;;;5116962;28;20468;-73
2022/07/16 00:19:39;;;;;;;0.90;0.60;;;19.90;1.00;;;;;;5117364;28;20492;-73
2022/07/16 00:22:07;;;;;;;1.13;0.60;;;19.80;1.00;;;;;;5118522;28;20515;-73
2022/07/16 00:24:34;;;;;;;1.07;0.70;;;19.90;1.00;;;;;;5118471;28;20456;-73
2022/07/16 00:27:01;;;;;;;4.03;0.60;;;19.90;1.00;;;;;;5118393;28;20441;-73
2022/07/16 00:29:28;;;;;;;1.20;0.87;;;19.90;1.00;;;;;;5118203;28;20496;-73
2022/07/16 00:31:55;;;;;;;1.00;0.80;;;20.00;1.00;;;;;;5118149;28;20477;-73
2022/07/16 00:34:23;;;;;;;1.00;0.70;;;20.10;1.00;;;;;;5118333;28;20810;-73
2022/07/16 00:36:50;;;;;;;1.00;0.70;;;20.00;1.00;;;;;;5117869;28;20506;-73
2022/07/16 00:39:19;;;;;;;2.10;0.73;;;19.90;1.00;;;;;;5117241;28;20551;-75
2022/07/16 00:41:48;;;;;;;0.80;0.60;;;20.00;1.00;;;;;;5118140;28;20516;-72
2022/07/16 00:44:16;;;;;;;0.80;0.67;;;20.00;1.00;;;;;;5118129;28;20495;-72
2022/07/16 00:46:46;;;;;;;0.90;0.63;;;20.00;1.00;;;;;;5117524;28;20544;-73
2022/07/16 00:49:13;;;;;;;0.70;0.60;;;20.00;1.00;;;;;;5117941;28;20475;-73
2022/07/16 00:51:44;;;;;;;1.30;0.60;;;20.00;1.00;;;;;;5117540;28;20472;-72
2022/07/16 00:54:11;;;;;;;0.77;0.60;;;20.10;1.00;;;;;;5118097;28;20488;-72
2022/07/16 00:56:39;;;;;;;1.10;0.70;;;20.00;1.00;;;;;;5117437;28;20452;-72
2022/07/16 00:59:06;;;;;;;1.00;0.60;;;19.90;1.00;;;;;;5117249;28;20505;-72
2022/07/16 01:01:34;;;;;;;1.17;0.63;;;19.90;1.00;;;;;;5117595;28;20448;-74
2022/07/16 01:04:04;;;;;;;1.33;0.60;;;19.70;1.00;;;;;;5117418;28;20498;-73
2022/07/16 01:06:32;;;;;;;1.10;0.60;;;19.70;1.00;;;;;;5117867;28;20510;-73
2022/07/16 01:09:00;;;;;;;1.10;0.70;;;19.70;1.00;;;;;;5117117;28;20455;-73
2022/07/16 01:11:27;;;;;;;1.10;0.53;;;19.70;1.00;;;;;;5116657;28;20920;-72
2022/07/16 01:13:56;;;;;;;0.70;0.50;;;19.50;1.00;;;;;;5117021;28;20476;-73
2022/07/16 01:16:23;;;;;;;2.63;0.67;;;19.50;1.00;;;;;;5117679;28;20440;-72
2022/07/16 01:18:50;;;;;;;0.73;0.63;;;19.40;1.00;;;;;;5117454;28;20880;-74
2022/07/16 01:21:17;;;;;;;0.90;0.50;;;19.60;1.00;;;;;;5117436;28;20754;-73
2022/07/16 01:23:49;;;;;;;0.90;0.70;;;19.50;1.00;;;;;;5117359;28;20516;-73
2022/07/16 01:26:16;;;;;;;1.67;0.77;;;19.40;1.00;;;;;;5117261;28;20899;-74
2022/07/16 01:28:43;;;;;;;1.00;0.60;;;19.40;1.00;;;;;;5117270;28;20484;-74
2022/07/16 01:31:11;;;;;;;0.90;0.60;;;19.40;1.00;;;;;;5117416;28;20547;-74
2022/07/16 01:33:39;;;;;;;2.37;0.70;;;19.40;1.00;;;;;;5117031;28;20441;-73
2022/07/16 01:36:09;;;;;;;0.90;0.60;;;19.20;1.00;;;;;;5117075;28;20806;-73
2022/07/16 01:38:39;;;;;;;1.03;0.60;;;19.00;1.00;;;;;;5116187;28;20495;-74
2022/07/16 01:41:08;;;;;;;2.03;0.67;;;18.90;1.00;;;;;;5116734;28;20483;-74
2022/07/16 01:43:35;;;;;;;1.27;0.77;;;18.90;1.00;;;;;;5117179;28;20488;-73
2022/07/16 01:46:02;;;;;;;2.03;0.80;;;18.90;1.00;;;;;;5117154;28;20453;-74
2022/07/16 01:48:30;;;;;;;0.90;0.70;;;18.90;1.00;;;;;;5116902;28;20484;-73
2022/07/16 01:50:57;;;;;;;0.87;0.70;;;19.00;1.00;;;;;;5117236;28;20808;-73
2022/07/16 01:53:24;;;;;;;0.80;0.60;;;18.90;1.00;;;;;;5117031;28;20445;-74
2022/07/16 01:55:51;;;;;;;1.00;0.67;;;18.80;1.00;;;;;;5116811;28;20456;-73
2022/07/16 01:58:20;;;;;;;1.67;0.80;;;18.70;1.00;;;;;;5115822;28;20448;-73
2022/07/16 02:00:47;;;;;;;1.00;0.67;;;18.70;1.00;;;;;;5116642;28;20965;-74
2022/07/16 02:03:14;;;;;;;1.10;0.60;;;18.60;1.00;;;;;;5116577;28;20571;-73
2022/07/16 02:05:43;;;;;;;1.73;0.80;;;18.60;1.00;;;;;;5116809;28;20957;-73
2022/07/16 02:08:10;;;;;;;0.90;0.67;;;18.50;1.00;;;;;;5117393;28;20441;-73
2022/07/16 02:10:38;;;;;;;0.80;0.70;;;18.40;1.00;;;;;;5116069;28;20562;-72
2022/07/16 02:13:08;;;;;;;2.80;0.70;;;18.30;1.00;;;;;;5117058;28;20873;-72
2022/07/16 02:15:37;;;;;;;0.90;0.50;;;18.30;1.00;;;;;;5116142;28;20457;-72
2022/07/16 02:18:05;;;;;;;1.20;0.60;;;18.30;1.00;;;;;;5116527;28;20531;-73
2022/07/16 02:20:32;;;;;;;0.80;0.60;;;18.40;1.00;;;;;;5116994;28;20453;-73
2022/07/16 02:22:59;;;;;;;1.40;0.60;;;18.50;1.00;;;;;;5119931;28;20480;-73
2022/07/16 02:25:29;;;;;;;0.90;0.70;;;18.60;1.00;;;;;;5120764;28;20513;-73
2022/07/16 02:28:08;;;;;;;0.90;0.70;;;18.70;1.00;;;;;;5120856;28;20868;-73
2022/07/16 02:30:39;;;;;;;1.20;0.70;;;18.70;1.00;;;;;;5120785;28;20455;-73
2022/07/16 02:33:06;;;;;;;1.00;0.77;;;18.40;1.00;;;;;;5120614;28;20498;-74
2022/07/16 02:35:34;;;;;;;0.80;0.60;;;18.40;1.00;;;;;;5120517;28;20495;-74
2022/07/16 02:38:01;;;;;;;0.80;0.60;;;18.30;1.00;;;;;;5120459;28;20583;-74
2022/07/16 02:40:29;;;;;;;0.63;0.50;;;18.10;1.00;;;;;;5119920;28;20545;-73
2022/07/16 02:42:57;;;;;;;1.47;0.60;;;18.10;1.00;;;;;;5120433;28;20480;-72
2022/07/16 02:45:24;;;;;;;0.70;0.60;;;18.10;1.00;;;;;;5120515;28;20498;-74
2022/07/16 02:47:52;;;;;;;1.57;0.70;;;18.10;1.00;;;;;;5120032;28;20535;-73
2022/07/16 02:50:20;;;;;;;0.70;0.50;;;18.00;1.00;;;;;;5120468;28;20513;-73
2022/07/16 02:52:47;;;;;;;1.20;0.50;;;17.90;1.00;;;;;;5119915;28;20444;-73
2022/07/16 02:55:14;;;;;;;1.57;0.70;;;17.90;1.00;;;;;;5119900;28;20500;-72
2022/07/16 02:57:41;;;;;;;0.90;0.60;;;18.00;1.00;;;;;;5120286;28;20798;-72
2022/07/16 03:00:11;;;;;;;0.87;0.60;;;17.90;1.00;;;;;;5120040;28;20456;-73
2022/07/16 03:02:38;;;;;;;0.90;0.70;;;17.90;1.00;;;;;;5119971;28;20510;-73
2022/07/16 03:05:09;;;;;;;1.20;0.60;;;17.90;1.00;;;;;;5119785;28;20452;-73
2022/07/16 03:07:36;;;;;;;5.57;0.80;;;17.90;1.00;;;;;;5119886;28;20444;-72
2022/07/16 03:10:03;;;;;;;0.90;0.70;;;17.90;1.00;;;;;;5119508;28;20488;-72
2022/07/16 03:12:30;;;;;;;1.30;0.63;;;17.80;1.00;;;;;;5119829;28;20445;-73
2022/07/16 03:14:57;;;;;;;0.90;0.70;;;17.80;1.00;;;;;;5119304;28;20505;-72
2022/07/16 03:17:24;;;;;;;2.07;0.60;;;17.70;1.00;;;;;;5119579;28;20445;-73
2022/07/16 03:19:51;;;;;;;0.70;0.53;;;17.70;1.00;;;;;;5119071;28;20879;-73
2022/07/16 03:22:20;;;;;;;1.10;0.70;;;17.50;1.00;;;;;;5119705;28;20452;-72
2022/07/16 03:24:47;;;;;;;0.90;0.60;;;17.50;1.00;;;;;;5119727;28;20496;-72
2022/07/16 03:27:14;;;;;;;0.83;0.60;;;17.30;1.00;;;;;;5119639;28;20483;-72
2022/07/16 03:29:42;;;;;;;1.10;0.60;;;17.20;1.00;;;;;;5119088;28;20456;-73
2022/07/16 03:32:09;;;;;;;0.70;0.60;;;17.20;1.00;;;;;;5119417;28;20448;-73
2022/07/16 03:34:36;;;;;;;0.90;0.60;;;17.30;1.00;;;;;;5118554;28;20510;-72
2022/07/16 03:37:03;;;;;;;0.80;0.60;;;17.20;1.00;;;;;;5119272;28;20460;-73
2022/07/16 03:39:31;;;;;;;1.00;0.60;;;17.20;1.00;;;;;;5119140;28;20510;-72
2022/07/16 03:41:58;;;;;;;2.23;0.80;;;17.20;1.00;;;;;;5119454;28;20531;-72
2022/07/16 03:44:25;;;;;;;0.97;0.63;;;17.20;1.00;;;;;;5119144;28;20786;-74
2022/07/16 03:46:52;;;;;;;2.13;0.60;;;17.20;1.00;;;;;;5119392;28;20441;-73
2022/07/16 03:49:19;;;;;;;0.83;0.53;;;17.20;1.00;;;;;;5118948;28;20551;-73
2022/07/16 03:51:46;;;;;;;1.00;0.67;;;17.10;1.00;;;;;;5119528;28;20508;-73
2022/07/16 03:54:13;;;;;;;1.00;0.70;;;17.10;1.00;;;;;;5118450;28;20887;-73
2022/07/16 03:56:43;;;;;;;0.90;0.57;;;17.10;1.00;;;;;;5118829;28;20535;-73
2022/07/16 03:59:10;;;;;;;0.80;0.60;;;17.30;1.00;;;;;;5118605;28;20451;-73
2022/07/16 04:01:37;;;;;;;1.00;0.70;;;17.30;1.00;;;;;;5118774;28;20473;-73
2022/07/16 04:04:05;;;;;;;0.90;0.73;;;17.10;1.00;;;;;;5118993;28;20553;-73
2022/07/16 04:06:32;;;;;;;3.20;0.60;;;17.10;1.00;;;;;;5118533;28;20777;-72
2022/07/16 04:08:58;;;;;;;1.00;0.80;;;17.20;1.00;;;;;;5118328;28;20926;-73
2022/07/16 04:11:25;;;;;;;0.63;0.50;;;17.20;1.00;;;;;;5118612;28;20815;-73
2022/07/16 04:13:54;;;;;;;0.90;0.70;;;17.20;1.00;;;;;;5118920;28;20489;-73
2022/07/16 04:16:21;;;;;;;1.53;0.60;;;17.20;1.00;;;;;;5117294;28;20483;-73
2022/07/16 04:18:48;;;;;;;1.03;0.60;;;17.20;1.00;;;;;;5118323;28;20534;-73
2022/07/16 04:21:19;;;;;;;1.20;0.60;;;17.30;1.00;;;;;;5118178;28;20878;-73
2022/07/16 04:23:46;;;;;;;1.07;0.70;;;17.20;1.00;;;;;;5118428;28;20564;-73
2022/07/16 04:26:13;;;;;;;0.80;0.50;;;17.20;1.00;;;;;;5118081;28;20458;-73
2022/07/16 04:28:40;;;;;;;0.90;0.60;;;17.20;1.00;;;;;;5118494;28;20441;-74
2022/07/16 04:31:08;;;;;;;1.10;0.77;;;17.30;1.00;;;;;;5118424;28;20448;-74
2022/07/16 04:33:35;;;;;;;0.83;0.60;;;17.20;1.00;;;;;;5118135;28;20473;-73
2022/07/16 04:36:03;;;;;;;1.10;0.80;;;17.20;1.00;;;;;;5117870;28;20767;-73
2022/07/16 04:38:30;;;;;;;1.00;0.50;;;17.20;1.00;;;;;;5118156;28;20448;-73
2022/07/16 04:40:57;;;;;;;0.90;0.57;;;17.20;1.00;;;;;;5117558;28;20480;-73
2022/07/16 04:43:23;;;;;;;0.90;0.70;;;17.20;1.00;;;;;;5117721;28;20895;-73
2022/07/16 04:45:51;;;;;;;0.80;0.70;;;17.20;1.00;;;;;;5117134;28;20513;-72
2022/07/16 04:48:19;;;;;;;0.90;0.60;;;17.20;1.00;;;;;;5116826;28;20766;-73
2022/07/16 04:50:46;;;;;;;1.03;0.60;;;17.20;1.00;;;;;;5116863;28;20507;-73
2022/07/16 04:53:13;;;;;;;0.80;0.50;;;17.20;1.00;;;;;;5115723;28;20522;-72
2022/07/16 04:55:40;;;;;;;0.93;0.60;;;17.20;1.00;;;;;;5116416;28;20542;-72
2022/07/16 04:58:07;;;;;;;0.80;0.50;;;17.30;1.00;;;;;;5115605;28;20448;-72
2022/07/16 05:00:34;;;;;;;0.80;0.53;;;17.30;1.00;;;;;;5116303;28;20953;-73
2022/07/16 05:03:01;;;;;;;2.47;0.70;;;17.40;1.00;;;;;;5116164;28;20484;-73
2022/07/16 05:05:31;;;;;;;0.83;0.60;;;17.30;1.00;;;;;;5115212;28;20559;-72
2022/07/16 05:07:59;;;;;;;1.47;0.60;;;17.30;1.00;;;;;;5114546;28;20768;-73
2022/07/16 05:10:27;;;;;;;1.73;0.60;;;17.20;1.00;;;;;;5114179;28;20492;-73
2022/07/16 05:12:54;;;;;;;1.27;0.63;;;17.30;1.00;;;;;;5114886;28;20760;-72
2022/07/16 05:15:22;;;;;;;1.00;0.50;;;17.40;1.00;;;;;;5114850;28;20476;-73
2022/07/16 05:17:49;;;;;;;0.93;0.57;;;17.50;1.00;;;;;;5115682;28;20448;-72
2022/07/16 05:20:18;;;;;;;1.17;0.60;;;17.60;1.00;;;;;;5118045;28;20457;-82
2022/07/16 05:22:46;;;;;;;0.80;0.50;;;17.50;1.00;;;;;;5118810;28;20467;-84
2022/07/16 05:25:15;;;;;;;0.70;0.60;;;17.50;1.00;;;;;;5117516;28;20463;-84
2022/07/16 05:27:42;;;;;;;1.53;0.50;;;17.50;1.00;;;;;;5116925;28;20838;-83
2022/07/16 05:30:10;;;;;;;1.70;0.60;;;17.50;1.00;;;;;;5116949;28;20776;-84
2022/07/16 05:32:37;;;;;;;2.70;0.60;;;17.60;1.00;;;;;;5116840;28;20514;-84
2022/07/16 05:35:05;;;;;;;0.87;0.60;;;17.70;1.00;;;;;;5116605;28;20484;-85
2022/07/16 05:37:32;;;;;;;0.77;0.60;;;17.90;1.00;;;;;;5116976;28;20449;-85
2022/07/16 05:40:01;;;;;;;0.90;0.60;;;18.20;1.00;;;;;;5117396;28;20480;-86
2022/07/16 05:42:28;;;;;;;1.00;0.57;;;18.20;1.00;;;;;;5117564;28;20480;-86
2022/07/16 05:44:55;;;;;;;0.83;0.60;;;18.20;1.00;;;;;;5117905;28;20545;-86
2022/07/16 05:47:22;;;;;;;1.13;0.67;;;18.20;1.00;;;;;;5118849;28;20506;-86
2022/07/16 05:49:49;;;;;;;0.90;0.50;;;18.30;1.00;;;;;;5119196;28;20506;-86
2022/07/16 05:52:16;;;;;;;0.77;0.57;;;18.30;1.00;;;;;;5119787;28;20513;-83
2022/07/16 05:54:43;;;;;;;0.90;0.70;;;18.30;1.00;;;;;;5119376;28;20448;-85
2022/07/16 05:57:11;;;;;;;1.50;0.70;;;18.30;1.00;;;;;;5118557;28;20429;-84
2022/07/16 05:59:38;;;;;;;1.63;0.60;;;18.30;1.00;;;;;;5119169;28;20456;-85
2022/07/16 06:02:05;;;;;;;1.57;0.60;;;18.30;1.00;;;;;;5119405;28;20487;-84
2022/07/16 06:04:32;;;;;;;0.70;0.50;;;18.40;1.00;;;;;;5118588;28;20485;-86
2022/07/16 06:06:59;;;;;;;0.87;0.60;;;18.40;1.00;;;;;;5114111;28;20510;-86
2022/07/16 06:09:27;;;;;;;0.97;0.60;;;18.30;1.00;;;;;;5105414;28;20494;-85
2022/07/16 06:11:53;;;;;;;1.60;0.60;;;18.40;1.00;;;;;;5116549;28;20441;-82
2022/07/16 06:14:22;;;;;;;2.27;0.60;;;18.60;1.00;;;;;;5107099;28;20453;-80
2022/07/16 06:16:53;;;;;;;1.00;0.70;;;18.50;1.00;;;;;;5117380;28;20534;-81
2022/07/16 06:19:22;;;;;;;1.83;0.50;;;18.40;1.00;;;;;;5115694;28;20507;-82
2022/07/16 06:21:49;;;;;;;3.40;0.50;;;18.50;1.00;;;;;;5115530;28;20452;-81
2022/07/16 06:24:16;;;;;;;1.37;0.60;;;18.60;1.00;;;;;;5114556;28;20487;-81
2022/07/16 06:26:46;;;;;;;1.10;0.70;;;18.60;1.00;;;;;;5101286;28;20441;-82
2022/07/16 06:29:14;;;;;;;1.20;0.70;;;18.60;1.00;;;;;;5096615;28;20466;-81
2022/07/16 06:31:43;;;;;;;0.97;0.70;;;18.60;1.00;;;;;;5096622;28;20864;-81
2022/07/16 06:34:11;;;;;;;2.47;0.70;;;18.60;1.00;;;;;;5096269;28;20499;-82
2022/07/16 06:36:38;;;;;;;1.73;0.67;;;18.60;1.00;;;;;;5102032;28;20950;-82
2022/07/16 06:39:05;;;;;;;0.90;0.53;;;18.70;1.00;;;;;;5112049;28;20441;-79
2022/07/16 06:41:32;;;;;;;1.17;0.50;;;19.00;1.00;;;;;;5092829;28;20925;-81
2022/07/16 06:43:59;;;;;;;0.70;0.60;;;19.20;1.00;;;;;;5081560;28;20556;-81
2022/07/16 06:46:26;;;;;;;0.90;0.60;;;19.50;1.00;;;;;;5097211;28;20892;-83
2022/07/16 06:48:54;;;;;;;0.90;0.50;;;19.60;1.00;;;;;;5096756;28;20870;-78
2022/07/16 06:51:21;;;;;;;0.90;0.60;;;19.60;1.00;;;;;;5095789;28;20512;-80
2022/07/16 06:53:49;;;;;;;1.00;0.70;;;19.80;1.00;;;;;;5096393;28;20449;-81
2022/07/16 06:56:16;;;;;;;0.90;0.73;;;20.00;1.00;;;;;;5095671;28;20790;-74
2022/07/16 06:58:43;;;;;;;1.20;0.70;;;19.90;1.00;;;;;;5087437;28;20445;-75
2022/07/16 07:01:10;;;;;;;1.40;0.70;;;19.90;1.00;;;;;;5077883;28;20201;-74
2022/07/16 07:03:38;;;;;;;1.60;0.60;;;20.00;1.00;;;;;;5092899;28;20550;-73
2022/07/16 07:06:07;;;;;;;0.80;0.57;;;20.00;1.00;;;;;;5075049;28;20553;-74
2022/07/16 07:08:34;;;;;;;1.00;0.67;;;20.10;1.00;;;;;;5075528;28;20481;-73
2022/07/16 07:11:01;;;;;;;1.40;0.87;;;20.10;1.00;;;;;;5094770;28;20942;-73
2022/07/16 07:13:30;;;;;;;1.83;0.60;;;20.20;1.00;;;;;;5097990;28;20456;-74
2022/07/16 07:15:57;;;;;;;1.00;0.80;;;20.30;1.00;;;;;;5098147;28;20495;-75
2022/07/16 07:18:24;;;;;;;0.87;0.73;;;20.50;1.00;;;;;;5094841;28;20444;-74
2022/07/16 07:20:51;;;;;;;0.80;0.70;;;20.60;1.00;;;;;;5091132;28;20477;-75
2022/07/16 07:23:20;;;;;;;1.60;0.80;;;20.80;1.00;;;;;;5084521;28;20877;-73
2022/07/16 07:25:47;;;;;;;1.20;0.80;;;21.00;1.00;;;;;;5091716;28;20528;-73
2022/07/16 07:28:14;;;;;;;1.00;0.70;;;21.20;1.00;;;;;;5091027;28;20496;-74
2022/07/16 07:30:41;;;;;;;1.10;0.53;;;21.00;1.00;;;;;;5080851;28;21083;-73
2022/07/16 07:33:08;;;;;;;1.00;0.60;;;20.90;1.00;;;;;;5086364;28;20492;-74
2022/07/16 07:35:35;;;;;;;1.47;0.80;;;20.90;1.00;;;;;;5094000;28;21019;-74
2022/07/16 07:38:03;;;;;;;1.30;0.80;;;21.00;1.00;;;;;;5090814;28;20477;-74
2022/07/16 07:40:31;;;;;;;0.80;0.70;;;21.10;1.00;;;;;;5103960;28;20485;-73
2022/07/16 07:42:59;;;;;;;1.10;0.67;;;21.20;1.00;;;;;;5113904;28;20476;-73
2022/07/16 07:45:26;;;;;;;1.40;0.60;;;21.40;1.00;;;;;;5109094;28;20519;-72
2022/07/16 07:47:53;;;;;;;0.90;0.50;;;21.60;1.00;;;;;;5096539;28;20989;-74
2022/07/16 07:50:22;;;;;;;0.77;0.50;;;21.60;1.00;;;;;;5104017;28;20522;-75
2022/07/16 07:52:52;;;;;;;0.80;0.60;;;21.60;1.00;;;;;;5112541;28;20445;-72
2022/07/16 07:55:19;;;;;;;1.00;0.53;;;21.80;1.00;;;;;;5095666;28;20450;-75
2022/07/16 07:57:48;;;;;;;1.23;0.40;;;21.90;1.00;;;;;;5099810;28;20471;-76
2022/07/16 08:00:15;;;;;;;1.40;0.60;;;22.00;1.00;;;;;;5115325;28;20483;-74
2022/07/16 08:02:44;;;;;;;1.33;0.50;;;22.00;1.00;;;;;;5112855;28;20447;-75
2022/07/16 08:05:11;;;;;;;0.90;0.50;;;22.00;1.00;;;;;;5107917;28;20231;-76
2022/07/16 08:07:38;;;;;;;1.40;0.47;;;21.90;1.00;;;;;;5101213;28;20813;-74
2022/07/16 08:10:07;;;;;;;1.00;0.60;;;22.00;1.00;;;;;;5116800;28;20549;-74
2022/07/16 08:12:35;;;;;;;1.00;0.60;;;22.00;1.00;;;;;;5116724;28;20455;-74
2022/07/16 08:15:04;;;;;;;1.00;0.40;;;22.10;1.00;;;;;;5116343;28;20973;-74
2022/07/16 08:17:31;;;;;;;2.53;0.60;;;22.20;1.00;;;;;;5117146;28;20488;-76
2022/07/16 08:20:01;;;;;;;1.53;0.50;;;22.30;1.00;;;;;;5110680;28;20857;-75
2022/07/16 08:22:28;;;;;;;1.00;0.40;;;22.20;1.00;;;;;;5097025;28;20450;-76
2022/07/16 08:27:39;;;;;;;1.10;0.50;;;22.30;1.00;;;;;;5115930;28;20435;-76
2022/07/16 08:30:09;;;;;;;0.70;0.40;;;22.50;1.00;;;;;;5116736;28;20555;-75
2022/07/16 08:32:36;;;;;;;2.83;0.63;;;22.50;1.00;;;;;;5115303;28;20557;-75
2022/07/16 08:35:04;;;;;;;1.27;0.50;;;22.60;1.00;;;;;;5115554;28;20484;-75
2022/07/16 08:37:33;;;;;;;0.63;0.40;;;22.60;1.00;;;;;;5095751;28;20486;-75
2022/07/16 08:40:01;;;;;;;0.70;0.47;;;22.70;1.00;;;;;;5094194;28;20484;-75
2022/07/16 08:42:31;;;;;;;0.80;0.60;;;22.60;1.00;;;;;;5095314;28;20905;-73
2022/07/16 08:44:59;;;;;;;0.80;0.60;;;22.60;1.00;;;;;;5095559;28;20485;-75
2022/07/16 08:47:30;;;;;;;0.63;0.50;;;22.70;1.00;;;;;;5099840;28;20445;-74
2022/07/16 08:50:00;;;;;;;0.60;0.40;;;22.70;1.00;;;;;;5115448;28;20456;-75
2022/07/16 08:52:29;;;;;;;0.87;0.50;;;22.80;1.00;;;;;;5100140;28;20476;-74
2022/07/16 08:54:57;;;;;;;0.70;0.40;;;23.00;1.00;;;;;;5113462;28;20449;-74
2022/07/16 08:57:26;;;;;;;0.60;0.40;;;23.00;1.00;;;;;;5108943;28;20489;-75
2022/07/16 08:59:54;;;;;;;1.00;0.50;;;22.90;1.00;;;;;;5106827;28;20537;-74
2022/07/16 09:02:21;;;;;;;0.60;0.40;;;23.00;1.00;;;;;;5101654;28;20545;-75
2022/07/16 09:04:51;;;;;;;0.43;0.30;;;22.90;1.00;;;;;;5111027;28;20974;-74
2022/07/16 09:07:21;;;;;;;0.70;0.33;;;23.00;1.00;;;;;;5095410;28;20456;-74
2022/07/16 09:09:49;;;;;;;1.00;0.40;;;23.20;1.00;;;;;;5102696;28;20438;-74
2022/07/16 09:12:33;;;;;;;0.60;0.40;;;23.00;1.00;;;;;;5104774;28;20450;-73
2022/07/16 09:15:00;;;;;;;0.50;0.40;;;23.20;1.00;;;;;;5108902;28;20477;-75
2022/07/16 09:17:31;;;;;;;0.47;0.30;;;23.40;1.00;;;;;;5103698;28;20440;-74
2022/07/16 09:19:59;;;;;;;0.50;0.40;;;23.50;1.00;;;;;;5116142;28;20475;-74
2022/07/16 09:22:26;;;;;;;1.37;0.50;;;23.50;1.00;;;;;;5093433;28;20453;-75
2022/07/16 09:24:56;;;;;;;0.97;0.60;;;23.60;1.00;;;;;;5098760;28;20517;-74
2022/07/16 09:27:25;;;;;;;0.80;0.50;;;23.70;1.00;;;;;;5110606;28;20506;-74
2022/07/16 09:29:58;;;;;;;0.50;0.40;;;23.80;1.00;;;;;;5104395;28;20571;-75
2022/07/16 09:32:30;;;;;;;2.40;0.40;;;23.90;1.00;;;;;;5101983;28;20506;-74
2022/07/16 09:35:08;;;;;;;0.50;0.30;;;23.90;1.00;;;;;;5111667;28;20453;-74
2022/07/16 09:37:49;;;;;;;0.87;0.40;;;24.00;1.00;;;;;;5101583;28;20532;-75
2022/07/16 09:40:28;;;;;;;0.50;0.40;;;23.90;1.00;;;;;;5104180;28;20508;-74
2022/07/16 09:42:55;;;;;;;0.80;0.40;;;24.00;1.00;;;;;;5095845;28;20442;-73
2022/07/16 09:45:23;;;;;;;0.53;0.30;;;24.00;1.00;;;;;;5095120;28;20489;-74
2022/07/16 09:47:50;;;;;;;1.03;0.40;;;24.10;1.00;;;;;;5093773;28;20928;-73
2022/07/16 09:50:20;;;;;;;0.90;0.60;;;24.30;1.00;;;;;;5093911;28;20488;-74
2022/07/16 09:52:48;;;;;;;0.80;0.50;;;24.40;1.00;;;;;;5094497;28;20455;-73
2022/07/16 09:55:15;;;;;;;0.53;0.37;;;24.40;1.00;;;;;;5093018;28;20897;-73
2022/07/16 09:57:44;;;;;;;1.00;0.50;;;24.40;1.00;;;;;;5093540;28;20525;-72
2022/07/16 10:00:12;;;;;;;1.00;0.40;;;24.50;1.00;;;;;;5092237;28;20449;-73
2022/07/16 10:02:39;;;;;;;0.60;0.50;;;24.50;1.00;;;;;;5092359;28;20489;-73
2022/07/16 10:05:07;;;;;;;0.60;0.40;;;24.60;1.00;;;;;;5093279;28;20488;-73
2022/07/16 10:07:35;;;;;;;0.60;0.40;;;24.80;1.00;;;;;;5093508;28;21170;-74
2022/07/16 10:10:02;;;;;;;0.80;0.57;;;24.90;1.00;;;;;;5092976;28;20481;-75
2022/07/16 10:12:30;;;;;;;0.90;0.50;;;24.60;1.00;;;;;;5093738;28;20523;-74
2022/07/16 10:14:57;;;;;;;0.60;0.40;;;24.50;1.00;;;;;;5093253;28;20478;-74
2022/07/16 10:17:32;;;;;;;0.90;0.90;;;24.70;1.00;;;;;;5094716;28;20430;-74
2022/07/16 10:20:01;;;;;;;0.57;0.40;;;24.80;1.00;;;;;;5093105;28;20532;-74
2022/07/16 10:22:30;;;;;;;0.60;0.50;;;24.90;1.00;;;;;;5094264;28;20860;-78
2022/07/16 10:24:59;;;;;;;0.70;0.50;;;25.00;1.00;;;;;;5094719;28;20481;-78
2022/07/16 10:27:32;;;;;;;0.80;0.60;;;25.30;1.00;;;;;;5095849;28;20524;-76
2022/07/16 10:30:11;;;;;;;0.70;0.43;;;25.70;1.00;;;;;;5093919;28;20934;-76
2022/07/16 10:33:17;;;;;;;2.00;1.20;;;26.00;1.00;;;;;;5080362;28;20469;-76
2022/07/16 10:35:48;;;;;;;1.30;0.50;;;26.20;1.00;;;;;;5095375;28;20457;-75
2022/07/16 10:38:18;;;;;;;0.83;0.43;;;26.60;1.00;;;;;;5094430;28;21028;-76
2022/07/16 10:40:48;;;;;;;0.50;0.40;;;26.90;1.00;;;;;;5107261;28;20484;-75
2022/07/16 10:43:17;;;;;;;3.57;0.33;;;26.90;1.00;;;;;;5117213;28;20535;-75
2022/07/16 10:45:55;;;;;;;1.63;0.40;;;27.20;1.00;;;;;;5118949;28;20537;-76
2022/07/16 10:48:24;;;;;;;0.67;0.40;;;27.60;1.00;;;;;;5117138;28;20440;-73
2022/07/16 10:51:14;;;;;;;0.50;0.37;;;27.70;1.00;;;;;;5116577;28;20464;-73
2022/07/16 10:54:27;;;;;;;0.80;0.40;;;27.60;1.00;;;;;;5114980;28;21004;-74
2022/07/16 10:56:58;;;;;;;1.87;0.40;;;27.30;1.00;;;;;;5098317;28;20453;-75
2022/07/16 10:59:27;;;;;;;0.70;0.40;;;27.60;1.00;;;;;;5097843;28;20492;-73
2022/07/16 11:01:56;;;;;;;0.60;0.40;;;27.30;1.00;;;;;;5104312;28;20952;-72
2022/07/16 11:04:28;;;;;;;0.67;0.33;;;27.50;1.00;;;;;;5117649;28;20448;-72
2022/07/16 11:06:56;;;;;;;1.23;0.40;;;27.90;1.00;;;;;;5116565;28;20437;-73
2022/07/16 11:09:28;;;;;;;0.50;0.40;;;27.90;1.00;;;;;;5117610;28;20875;-72
2022/07/16 11:12:05;;;;;;;1.00;0.37;;;28.30;1.00;;;;;;5119613;28;20518;-72
2022/07/16 11:14:32;;;;;;;0.40;0.30;;;28.90;1.00;;;;;;5098641;28;20511;-72
2022/07/16 11:16:59;;;;;;;1.00;0.50;;;28.30;99.90;;;;;;5098699;28;20775;-72
2022/07/16 11:19:26;;;;;;;0.70;0.40;;;28.50;99.90;;;;;;5098872;28;20499;-72
2022/07/16 11:21:55;;;;;;;0.50;0.30;;;28.60;99.90;;;;;;5115984;28;20479;-72
2022/07/16 11:24:23;;;;;;;0.60;0.40;;;29.10;99.90;;;;;;5116887;28;20535;-71
2022/07/16 11:26:51;;;;;;;1.23;0.50;;;29.10;99.90;;;;;;5116825;28;20992;-72
2022/07/16 11:29:21;;;;;;;0.50;0.30;;;29.20;99.90;;;;;;5117590;28;20456;-71
2022/07/16 11:31:49;;;;;;;0.53;0.30;;;29.10;99.90;;;;;;5113618;28;20442;-72
2022/07/16 11:34:18;;;;;;;0.50;0.30;;;29.50;99.90;;;;;;5103868;28;20450;-73
2022/07/16 11:36:49;;;;;;;1.10;0.40;;;29.60;99.90;;;;;;5110966;28;20478;-72
2022/07/16 11:39:17;;;;;;;0.40;0.30;;;28.70;99.90;;;;;;5116876;28;20449;-72
2022/07/16 11:41:46;;;;;;;0.60;0.40;;;28.90;99.90;;;;;;5114189;28;20437;-72
2022/07/16 11:44:15;;;;;;;0.83;0.40;;;29.40;99.90;;;;;;5117698;28;20515;-72
2022/07/16 11:46:46;;;;;;;4.03;0.30;;;29.70;99.90;;;;;;5117591;28;20542;-73
2022/07/16 11:49:21;;;;;;;0.90;0.37;;;29.60;99.90;;;;;;5117601;28;20513;-73
2022/07/16 11:51:48;;;;;;;0.60;0.40;;;29.70;99.90;;;;;;5116799;28;20475;-72
2022/07/16 11:54:15;;;;;;;1.00;0.30;;;29.50;99.90;;;;;;5115885;28;20521;-72
2022/07/16 11:56:43;;;;;;;0.40;0.30;;;29.80;99.90;;;;;;5115927;28;20535;-72
2022/07/16 11:59:19;;;;;;;0.60;0.40;;;30.00;99.90;;;;;;5117229;28;20449;-72
2022/07/16 12:01:48;;;;;;;0.77;0.43;;;29.90;99.90;;;;;;5117349;28;20444;-72
2022/07/16 12:04:15;;;;;;;0.50;0.30;;;29.80;99.90;;;;;;5116077;28;20476;-72
2022/07/16 12:06:47;;;;;;;0.47;0.30;;;30.00;99.90;;;;;;5117385;28;20588;-71
2022/07/16 12:09:30;;;;;;;0.60;0.30;;;29.60;99.90;;;;;;5116659;28;20757;-71
2022/07/16 12:12:01;;;;;;;0.50;0.30;;;29.80;99.90;;;;;;5115693;28;20536;-71
2022/07/16 12:14:53;;;;;;;0.50;0.30;;;30.10;99.90;;;;;;5115396;28;20543;-71
2022/07/16 12:17:31;;;;;;;0.93;0.40;;;30.10;99.90;;;;;;5099347;28;20452;-71
2022/07/16 12:20:14;;;;;;;0.73;0.30;;;29.50;99.90;;;;;;5115808;28;20563;-71
2022/07/16 12:22:45;;;;;;;0.90;0.40;;;29.00;99.90;;;;;;5116013;28;20472;-71
2022/07/16 12:25:28;;;;;;;0.90;0.33;;;28.80;99.90;;;;;;5116813;28;20520;-71
2022/07/16 12:27:57;;;;;;;0.50;0.30;;;29.30;99.90;;;;;;5117753;28;20892;-71
2022/07/16 12:30:31;;;;;;;0.50;0.30;;;29.50;99.90;;;;;;5118066;28;20782;-71
2022/07/16 12:33:00;;;;;;;0.60;0.37;;;29.40;99.90;;;;;;5117829;28;20864;-71
2022/07/16 12:35:48;;;;;;;0.50;0.30;;;29.20;99.90;;;;;;5116613;28;20951;-71
2022/07/16 12:38:41;;;;;;;0.50;0.30;;;29.70;99.90;;;;;;5118408;28;20506;-71
2022/07/16 12:41:11;;;;;;;1.07;0.40;;;30.40;99.90;;;;;;5108891;28;20512;-71
2022/07/16 12:43:39;;;;;;;0.40;0.30;;;30.80;99.90;;;;;;5115908;28;20520;-71
2022/07/16 12:46:06;;;;;;;1.33;0.40;;;30.80;99.90;;;;;;5116559;28;20995;-72
2022/07/16 12:48:43;;;;;;;0.60;0.40;;;30.80;99.90;;;;;;5116454;28;20892;-71
2022/07/16 12:51:12;;;;;;;0.50;0.30;;;30.50;99.90;;;;;;5115767;28;20483;-71
2022/07/16 12:53:39;;;;;;;0.50;0.30;;;30.70;99.90;;;;;;5116204;28;20475;-71
2022/07/16 12:58:51;;;;;;;0.80;0.30;;;30.60;99.90;;;;;;5112720;28;20879;-70
2022/07/16 13:01:20;;;;;;;0.73;0.30;;;30.50;99.90;;;;;;5111825;28;20743;-71
2022/07/16 13:03:49;;;;;;;1.60;0.30;;;30.20;99.90;;;;;;5112369;28;20436;-71
2022/07/16 13:06:16;;;;;;;0.50;0.30;;;29.90;99.90;;;;;;5113484;28;21038;-71
2022/07/16 13:08:44;;;;;;;0.40;0.30;;;29.60;99.90;;;;;;5114250;28;20868;-71
2022/07/16 13:11:12;;;;;;;0.40;0.30;;;30.10;99.90;;;;;;5114663;28;20751;-71